Portada
METAR-TAF:

METAR-TAF

Aeroports :

Bíldudalur, Islàndia

latitud: 65-38-30N, longitud: 23-32-45W, altitud: 8 m

Observació

L'informe es va fer fa 11 hores i 36 minuts, a les 16:00 UTC
Vent 11 kt del Nord/Nord-Est
Temperatura 9°C
Humitat 66%
Pressió 1013 hPa
Visibilitat 10 km o més
Cel ennuvolat a una alçada de 2800 ft

METAR: BIBD 261600Z 03011KT 9999 BKN028 09/03 Q1013

Hora: 03:36 (03:36 UTC)

Pronòstic

L'informe es va fer fa 11 hores i 34 minuts, a les 16:02 UTC
Pronòstic vàlid del 26 a les 17 UTC al 27 a les 02 UTC
Vent 14 kt del Nord/Nord-Est
Visibilitat 10 km o més
Cel cobert a una alçada de 2800 ft
Evolucionant progressivament
l' 26 a les 20 UTC al 26 a les 22 UTC
Cel ennuvolat a una alçada de 1200 ft
Cel cobert a una alçada de 2000 ft
pluja

TAF: BIBD 261602Z 2617/2702 02014KT 9999 OVC028 BECMG 2620/2622 RA BKN012 OVC020

Observacions i pronòstics meteorològics de més de 4000 aeroports (METAR i TAF).

Les estacions disponibles són els punts grocs i vermells al mapa.

Posi el ratolí al punt desitjat per veure el nom de l'estació.

Feu clic per veure les observacions i els pronòstics meteorològics.

Per canviar el mapa: feu clic els botons verds amb una creu de color negre per apropar; al botó verd amb un guió per allunyar la imatge; o en les fletxes verdes per a mapes adjacents.


METAR-TAF: